Time;durP1;ratioP1;P1;durP2;ratioP2;P2;SDS_P1;SDS_P2;PMS_P1;PMS_P2;Temp;Humidity;BMP_temperature;BMP_pressure;BME280_temperature;BME280_humidity;BME280_pressure;Samples;Min_cycle;Max_cycle;Signal;HPM_P1;HPM_P2
2021/01/14 00:00:36;;;;;;;20.17;13.68;;;;;;;4.33;86.63;98735.06;5102672;28;20226;-78
2021/01/14 00:03:09;;;;;;;20.23;12.60;;;;;;;4.32;86.68;98725.34;5113346;28;20223;-77
2021/01/14 00:05:35;;;;;;;18.90;12.43;;;;;;;4.30;86.78;98734.34;5083759;28;20200;-76
2021/01/14 00:08:03;;;;;;;17.13;12.40;;;;;;;4.27;86.73;98724.69;5086423;28;20705;-78
2021/01/14 00:10:30;;;;;;;19.50;12.70;;;;;;;4.31;86.56;98717.44;5099819;28;20203;-78
2021/01/14 00:12:56;;;;;;;17.75;11.85;;;;;;;4.36;86.38;98718.94;5092790;28;20220;-81
2021/01/14 00:15:23;;;;;;;17.40;11.88;;;;;;;4.44;85.97;98726.56;5096403;27;20208;-78
2021/01/14 00:17:49;;;;;;;17.10;11.93;;;;;;;4.32;85.84;98733.34;5070857;28;20224;-78
2021/01/14 00:20:18;;;;;;;18.38;11.77;;;;;;;4.37;86.04;98741.09;5065399;28;20203;-78
2021/01/14 00:22:45;;;;;;;16.65;10.70;;;;;;;4.16;86.22;98758.06;5058432;28;20255;-81
2021/01/14 00:25:14;;;;;;;14.60;10.15;;;;;;;4.41;85.34;98732.91;5054301;28;20248;-79
2021/01/14 00:27:40;;;;;;;13.40;9.98;;;;;;;4.37;85.08;98736.63;5077826;28;20255;-81
2021/01/14 00:30:13;;;;;;;12.85;9.80;;;;;;;4.21;85.31;98734.75;5054155;28;20256;-83
2021/01/14 00:32:39;;;;;;;14.30;10.02;;;;;;;4.21;85.10;98738.28;5071008;28;20238;-79
2021/01/14 00:35:07;;;;;;;15.55;11.02;;;;;;;4.22;85.21;98752.44;5065071;28;20189;-79
2021/01/14 00:37:51;;;;;;;14.77;9.68;;;;;;;4.28;85.06;98760.13;5077535;28;20227;-80
2021/01/14 00:40:29;;;;;;;10.98;8.50;;;;;;;4.21;84.71;98778.22;5056309;28;20477;-79
2021/01/14 00:43:08;;;;;;;13.07;8.80;;;;;;;4.23;84.60;98780.81;5060587;28;20505;-82
2021/01/14 00:45:35;;;;;;;11.75;8.23;;;;;;;4.21;84.48;98764.91;5090895;28;20287;-80
2021/01/14 00:48:04;;;;;;;11.40;8.43;;;;;;;4.15;84.66;98765.19;5059644;28;20250;-81
2021/01/14 00:50:31;;;;;;;9.73;7.32;;;;;;;4.12;84.68;98751.16;5085214;28;20200;-81
2021/01/14 00:52:58;;;;;;;15.25;8.80;;;;;;;3.99;85.15;98750.84;5078561;28;20212;-81
2021/01/14 00:55:24;;;;;;;12.43;9.27;;;;;;;4.03;85.08;98747.13;5059392;28;20215;-81
2021/01/14 00:57:50;;;;;;;12.00;9.07;;;;;;;3.95;85.30;98754.59;5079446;28;20242;-82
2021/01/14 01:00:19;;;;;;;10.40;7.47;;;;;;;3.99;85.39;98747.31;5092525;28;20228;-81
2021/01/14 01:02:47;;;;;;;13.18;9.13;;;;;;;3.98;85.06;98743.78;5104862;28;20280;-79
2021/01/14 01:05:15;;;;;;;10.55;7.82;;;;;;;4.04;84.71;98743.50;5102958;28;20243;-82
2021/01/14 01:07:50;;;;;;;12.02;8.07;;;;;;;3.99;84.63;98748.19;5073650;28;20259;-78
2021/01/14 01:10:17;;;;;;;12.07;8.23;;;;;;;4.02;84.47;98732.09;5099267;28;20230;-75
2021/01/14 01:12:44;;;;;;;11.05;8.32;;;;;;;3.96;84.97;98740.34;5083633;28;20238;-77
2021/01/14 01:15:10;;;;;;;9.80;7.03;;;;;;;4.01;84.33;98737.47;5093255;28;20219;-77
2021/01/14 01:17:36;;;;;;;10.02;7.97;;;;;;;4.00;83.66;98746.41;5094480;28;20238;-75
2021/01/14 01:20:03;;;;;;;8.38;6.75;;;;;;;4.06;83.52;98741.66;5098099;28;20251;-77
2021/01/14 01:22:29;;;;;;;11.18;7.32;;;;;;;4.11;83.50;98746.78;5074312;28;20307;-81
2021/01/14 01:24:55;;;;;;;11.25;7.72;;;;;;;4.11;83.48;98746.78;5071419;28;20265;-80
2021/01/14 01:27:21;;;;;;;10.02;7.82;;;;;;;4.09;83.29;98738.84;5052629;28;20276;-81
2021/01/14 01:29:47;;;;;;;11.80;8.55;;;;;;;4.09;83.19;98740.63;5069686;28;20220;-79
2021/01/14 01:32:13;;;;;;;10.02;7.07;;;;;;;4.15;83.59;98751.88;5072347;28;20218;-78
2021/01/14 01:34:40;;;;;;;11.18;7.65;;;;;;;4.17;83.89;98754.47;5074664;28;20908;-81
2021/01/14 01:37:06;;;;;;;11.82;8.00;;;;;;;4.21;83.11;98770.22;5075487;28;20234;-80
2021/01/14 01:39:39;;;;;;;11.85;8.43;;;;;;;4.22;83.26;98769.28;5072245;28;20599;-81
2021/01/14 01:42:05;;;;;;;10.43;7.45;;;;;;;4.21;82.94;98778.22;5053266;28;20317;-81
2021/01/14 01:44:32;;;;;;;10.20;7.85;;;;;;;4.19;82.99;98780.09;5052034;28;20188;-80
2021/01/14 01:47:06;;;;;;;9.88;7.68;;;;;;;4.09;83.07;98781.41;5072903;28;20242;-81
2021/01/14 01:49:37;;;;;;;10.10;7.68;;;;;;;4.01;83.13;98785.34;5069702;28;20216;-82
2021/01/14 01:52:06;;;;;;;10.98;7.40;;;;;;;4.04;82.84;98780.75;5050257;28;20237;-81
2021/01/14 01:54:33;;;;;;;14.07;7.97;;;;;;;4.01;82.91;98780.91;5070670;28;20257;-80
2021/01/14 01:57:04;;;;;;;10.88;7.10;;;;;;;4.03;82.52;98778.16;5073079;28;20219;-80
2021/01/14 01:59:31;;;;;;;9.43;6.65;;;;;;;4.10;82.26;98791.13;5066093;28;20196;-81
2021/01/14 02:02:17;;;;;;;8.57;6.95;;;;;;;4.11;82.27;98792.84;5072533;28;20215;-80
2021/01/14 02:04:43;;;;;;;9.73;7.35;;;;;;;4.13;81.60;98782.16;5086999;28;20212;-81
2021/01/14 02:07:15;;;;;;;9.20;6.30;;;;;;;4.16;81.27;98777.53;5055666;28;20220;-78
2021/01/14 02:09:48;;;;;;;7.90;6.50;;;;;;;4.08;81.90;98787.69;5057224;28;20307;-79
2021/01/14 02:12:15;;;;;;;7.75;6.57;;;;;;;4.10;81.96;98784.97;5056740;28;20224;-79
2021/01/14 02:14:44;;;;;;;9.63;7.28;;;;;;;4.13;81.76;98783.03;5069462;28;20277;-81
2021/01/14 02:17:10;;;;;;;9.23;6.47;;;;;;;4.02;82.25;98779.97;5070046;28;20212;-82
2021/01/14 02:19:44;;;;;;;11.68;7.68;;;;;;;4.02;82.50;98787.06;5061062;28;20274;-80
2021/01/14 02:22:19;;;;;;;10.20;6.88;;;;;;;4.02;82.85;98776.44;5085678;28;20250;-79
2021/01/14 02:25:12;;;;;;;9.20;7.07;;;;;;;4.08;82.35;98778.81;5086323;28;20215;-80
2021/01/14 02:27:40;;;;;;;8.70;6.80;;;;;;;4.13;81.86;98775.03;5062303;28;20216;-83
2021/01/14 02:30:09;;;;;;;11.45;7.65;;;;;;;4.21;81.26;98777.31;5058154;28;20224;-82
2021/01/14 02:32:36;;;;;;;10.65;7.50;;;;;;;4.13;82.18;98775.03;5084797;28;20202;-80
2021/01/14 02:35:03;;;;;;;12.35;8.18;;;;;;;4.31;80.85;98773.31;5066564;28;20192;-80
2021/01/14 02:37:29;;;;;;;10.85;7.40;;;;;;;4.24;80.37;98774.53;5080888;28;20228;-78
2021/01/14 02:39:55;;;;;;;7.93;6.93;;;;;;;4.27;80.28;98777.94;5077784;28;20231;-80
2021/01/14 02:42:21;;;;;;;10.20;7.55;;;;;;;4.19;80.16;98782.75;5079477;28;20283;-80
2021/01/14 02:44:47;;;;;;;9.30;7.03;;;;;;;4.20;80.33;98794.22;5074706;28;20224;-77
2021/01/14 02:47:16;;;;;;;9.27;7.40;;;;;;;4.24;80.47;98788.69;5091116;28;20212;-80
2021/01/14 02:49:50;;;;;;;10.85;7.40;;;;;;;4.28;80.34;98800.94;5071354;28;20474;-81
2021/01/14 02:52:17;;;;;;;8.43;6.65;;;;;;;4.28;80.21;98800.06;5073374;28;20922;-82
2021/01/14 02:54:43;;;;;;;8.98;6.35;;;;;;;4.28;79.62;98808.91;5075830;28;20235;-81
2021/01/14 02:57:10;;;;;;;10.18;6.28;;;;;;;4.27;79.59;98814.31;5067774;28;20310;-80
2021/01/14 02:59:38;;;;;;;8.50;7.15;;;;;;;4.22;80.00;98809.19;5053822;28;20223;-80
2021/01/14 03:02:04;;;;;;;7.28;6.57;;;;;;;4.15;80.06;98813.06;5050243;28;20215;-81
2021/01/14 03:04:30;;;;;;;7.27;6.10;;;;;;;4.13;80.23;98817.59;5063877;28;20628;-81
2021/01/14 03:06:56;;;;;;;11.88;7.25;;;;;;;4.12;79.85;98823.84;5051603;28;20486;-81
2021/01/14 03:09:22;;;;;;;7.30;5.90;;;;;;;4.15;79.99;98821.06;5046890;28;20603;-82
2021/01/14 03:11:48;;;;;;;9.98;6.82;;;;;;;4.09;80.57;98818.66;5068321;28;20228;-81
2021/01/14 03:14:14;;;;;;;6.80;6.05;;;;;;;4.05;80.89;98809.09;5086951;28;20192;-81
2021/01/14 03:16:41;;;;;;;9.13;6.50;;;;;;;4.15;80.56;98813.06;5070170;28;20219;-79
2021/01/14 03:19:07;;;;;;;8.48;6.50;;;;;;;4.13;80.53;98812.28;5045413;28;20231;-80
2021/01/14 03:21:33;;;;;;;9.40;6.88;;;;;;;4.13;80.85;98822.94;5052195;28;20216;-79
2021/01/14 03:23:59;;;;;;;8.25;6.07;;;;;;;4.18;80.69;98826.22;5066685;28;20230;-80
2021/01/14 03:26:26;;;;;;;10.95;7.07;;;;;;;4.16;80.82;98827.25;5065694;28;20211;-77
2021/01/14 03:28:52;;;;;;;12.43;6.65;;;;;;;4.11;80.83;98834.56;5069130;28;20711;-80
2021/01/14 03:31:19;;;;;;;8.68;7.25;;;;;;;4.06;81.74;98834.78;5070016;28;20228;-80
2021/01/14 03:33:46;;;;;;;10.50;6.80;;;;;;;4.12;81.07;98837.13;5081468;28;20229;-79
2021/01/14 03:36:17;;;;;;;11.40;7.43;;;;;;;4.07;81.16;98832.97;5056175;28;20228;-77
2021/01/14 03:38:43;;;;;;;10.50;7.10;;;;;;;4.06;81.36;98842.75;5063121;28;20603;-80
2021/01/14 03:41:11;;;;;;;8.70;6.90;;;;;;;4.09;81.38;98847.94;5065930;28;20299;-78
2021/01/14 03:43:38;;;;;;;8.43;6.10;;;;;;;4.12;81.25;98844.28;5062264;28;20662;-80
2021/01/14 03:46:13;;;;;;;9.88;6.68;;;;;;;4.04;81.72;98849.06;5060486;28;20219;-79
2021/01/14 03:48:42;;;;;;;9.05;6.28;;;;;;;4.01;82.03;98865.16;5089228;28;20219;-76
2021/01/14 03:51:19;;;;;;;9.55;6.18;;;;;;;3.77;83.16;98860.88;5071541;28;20211;-78
2021/01/14 03:53:46;;;;;;;9.70;6.50;;;;;;;3.89;82.39;98861.25;5072459;28;20227;-80
2021/01/14 03:56:14;;;;;;;12.48;6.82;;;;;;;3.75;82.66;98868.94;5075599;28;20210;-81
2021/01/14 03:58:41;;;;;;;8.45;6.35;;;;;;;3.81;82.79;98870.47;5060431;28;20761;-80
2021/01/14 04:01:07;;;;;;;10.75;6.78;;;;;;;3.75;82.31;98863.63;5076460;28;20220;-80
2021/01/14 04:03:40;;;;;;;10.10;6.30;;;;;;;3.78;82.58;98866.16;5060636;28;20224;-81
2021/01/14 04:06:07;;;;;;;7.97;6.28;;;;;;;3.71;83.00;98862.03;5079325;28;20228;-78
2021/01/14 04:08:34;;;;;;;8.70;5.80;;;;;;;3.70;82.77;98865.63;5085115;28;20196;-77
2021/01/14 04:11:00;;;;;;;8.93;6.03;;;;;;;3.52;83.71;98868.19;5074713;28;20187;-78
2021/01/14 04:13:26;;;;;;;9.57;6.50;;;;;;;3.46;83.65;98868.44;5099774;28;20283;-79
2021/01/14 04:15:52;;;;;;;9.90;6.93;;;;;;;3.40;83.80;98864.22;5070993;28;20216;-78
2021/01/14 04:18:19;;;;;;;11.55;6.15;;;;;;;3.31;83.88;98872.59;5085673;28;20242;-80
2021/01/14 04:20:45;;;;;;;6.75;5.60;;;;;;;3.21;84.29;98881.84;5080309;28;20215;-82
2021/01/14 04:23:11;;;;;;;9.68;6.18;;;;;;;3.12;84.82;98876.03;5050646;28;20222;-79
2021/01/14 04:25:38;;;;;;;8.20;5.60;;;;;;;3.15;85.11;98879.44;5068875;28;20219;-80
2021/01/14 04:28:04;;;;;;;12.00;7.18;;;;;;;3.00;86.25;98882.72;5063370;28;20227;-80
2021/01/14 04:30:35;;;;;;;14.70;6.80;;;;;;;2.99;86.58;98881.00;5077558;28;20227;-78
2021/01/14 04:33:12;;;;;;;9.82;7.82;;;;;;;2.96;86.54;98891.72;5058697;28;20221;-82
2021/01/14 04:35:47;;;;;;;13.50;7.80;;;;;;;3.17;85.86;98890.00;5040511;28;20224;-80
2021/01/14 04:38:14;;;;;;;11.27;7.75;;;;;;;3.19;84.80;98891.69;5096361;28;20259;-79
2021/01/14 04:40:40;;;;;;;12.00;8.20;;;;;;;3.15;85.29;98892.72;5085963;28;20514;-81
2021/01/14 04:43:09;;;;;;;8.55;6.88;;;;;;;3.07;85.06;98900.13;5087879;28;20231;-77
2021/01/14 04:45:36;;;;;;;10.88;6.75;;;;;;;3.09;85.66;98900.94;5076661;28;20225;-81
2021/01/14 04:48:02;;;;;;;9.32;6.85;;;;;;;3.21;84.96;98905.75;5052720;28;20219;-78
2021/01/14 04:50:29;;;;;;;11.90;6.47;;;;;;;3.10;85.71;98907.13;5084743;28;20220;-78
2021/01/14 04:52:55;;;;;;;10.50;6.82;;;;;;;3.15;85.07;98898.03;5107226;28;20219;-80
2021/01/14 04:55:27;;;;;;;9.90;7.30;;;;;;;2.96;85.45;98897.03;5097331;28;20227;-81
2021/01/14 04:57:54;;;;;;;11.82;6.53;;;;;;;2.88;85.83;98899.13;5092908;28;20220;-76
2021/01/14 05:00:25;;;;;;;12.85;7.15;;;;;;;2.76;86.56;98886.31;5069775;28;20254;-78
2021/01/14 05:03:04;;;;;;;12.73;7.95;;;;;;;2.74;86.84;98887.28;5078099;28;20710;-81
2021/01/14 05:05:31;;;;;;;10.40;7.28;;;;;;;2.83;86.79;98893.13;5077819;28;20274;-80
2021/01/14 05:08:06;;;;;;;8.85;6.90;;;;;;;2.81;86.74;98897.63;5058689;28;20268;-80
2021/01/14 05:10:35;;;;;;;12.90;7.90;;;;;;;2.77;86.87;98895.16;5064252;28;20230;-80
2021/01/14 05:13:02;;;;;;;10.88;8.00;;;;;;;2.84;87.43;98896.66;5067887;28;20234;-78
2021/01/14 05:15:35;;;;;;;12.73;7.97;;;;;;;2.67;87.35;98902.59;5076043;28;20238;-80
2021/01/14 05:18:01;;;;;;;12.07;8.43;;;;;;;2.73;87.51;98894.41;5054482;28;20711;-80
2021/01/14 05:20:27;;;;;;;12.73;8.60;;;;;;;2.58;87.62;98907.41;5061108;28;20192;-80
2021/01/14 05:23:02;;;;;;;11.00;7.95;;;;;;;2.77;87.48;98898.66;5082031;28;20208;-80
2021/01/14 05:25:30;;;;;;;10.88;8.07;;;;;;;2.77;86.82;98903.13;5078173;28;20258;-80
2021/01/14 05:28:16;;;;;;;10.90;7.55;;;;;;;2.69;86.88;98903.41;5073268;28;20219;-78
2021/01/14 05:30:43;;;;;;;10.93;7.90;;;;;;;2.71;87.12;98898.91;5075259;28;20274;-81
2021/01/14 05:33:14;;;;;;;13.95;10.23;;;;;;;2.63;87.21;98890.38;5062865;28;20228;-80
2021/01/14 05:35:48;;;;;;;11.10;7.93;;;;;;;2.58;87.31;98902.94;5062345;28;20211;-78
2021/01/14 05:38:20;;;;;;;12.45;9.25;;;;;;;2.53;87.65;98899.59;5098142;28;20235;-76
2021/01/14 05:41:10;;;;;;;13.75;9.43;;;;;;;2.64;87.70;98904.50;5086155;28;20258;-78
2021/01/14 05:43:46;;;;;;;15.40;10.27;;;;;;;2.63;87.63;98911.59;5095417;28;20235;-82
2021/01/14 05:46:20;;;;;;;12.30;8.73;;;;;;;2.62;87.48;98916.94;5051214;28;20275;-81
2021/01/14 05:48:47;;;;;;;13.35;9.55;;;;;;;2.61;87.84;98917.88;5058697;28;20215;-81
2021/01/14 05:51:19;;;;;;;19.00;10.85;;;;;;;2.71;87.85;98922.78;5077650;28;20242;-77
2021/01/14 05:53:59;;;;;;;14.07;8.65;;;;;;;2.78;87.59;98929.63;5061038;28;20224;-78
2021/01/14 05:56:36;;;;;;;15.55;8.88;;;;;;;2.76;86.93;98933.25;5070551;28;20317;-80
2021/01/14 05:59:05;;;;;;;16.60;9.73;;;;;;;2.81;86.77;98940.13;5077876;28;20227;-82
2021/01/14 06:01:31;;;;;;;15.25;9.75;;;;;;;2.73;87.16;98939.53;5059671;28;20236;-82
2021/01/14 06:04:18;;;;;;;14.65;9.48;;;;;;;2.72;87.17;98943.13;5053710;28;20234;-80
2021/01/14 06:06:49;;;;;;;14.05;8.65;;;;;;;2.68;87.10;98949.47;5073312;28;20223;-80
2021/01/14 06:09:17;;;;;;;15.35;9.27;;;;;;;2.71;87.20;98941.38;5072407;28;20250;-80
2021/01/14 06:11:44;;;;;;;18.20;11.85;;;;;;;2.70;87.58;98950.25;5056068;28;20219;-81
2021/01/14 06:14:29;;;;;;;14.27;9.55;;;;;;;2.68;88.11;98962.72;5085587;28;20445;-80
2021/01/14 06:16:58;;;;;;;14.40;9.55;;;;;;;2.82;87.34;98970.19;5074078;28;20300;-80
2021/01/14 06:19:25;;;;;;;15.60;9.82;;;;;;;2.82;86.99;98968.38;5086571;28;20231;-80
2021/01/14 06:21:58;;;;;;;17.00;10.82;;;;;;;2.81;86.96;98966.66;5083642;28;20226;-81
2021/01/14 06:24:36;;;;;;;17.02;11.02;;;;;;;2.81;87.16;98966.66;5069474;28;20279;-78
2021/01/14 06:27:05;;;;;;;17.35;11.65;;;;;;;2.76;87.04;98979.22;5087066;28;20223;-81
2021/01/14 06:29:39;;;;;;;16.90;10.40;;;;;;;2.79;86.88;98981.78;5069445;28;20210;-80
2021/01/14 06:32:12;;;;;;;16.15;11.15;;;;;;;2.75;87.11;98981.94;5079344;28;20262;-80
2021/01/14 06:34:50;;;;;;;15.52;10.10;;;;;;;2.75;86.90;98982.81;5067544;28;20230;-83
2021/01/14 06:37:24;;;;;;;16.73;10.85;;;;;;;2.76;86.81;98981.88;5045787;28;20223;-82
2021/01/14 06:39:56;;;;;;;19.75;12.05;;;;;;;2.64;87.34;98961.09;5063550;28;20574;-81
2021/01/14 06:42:27;;;;;;;16.17;10.75;;;;;;;2.59;87.71;98975.47;5060477;28;20215;-81
2021/01/14 06:44:56;;;;;;;16.02;9.77;;;;;;;2.63;87.55;98974.44;5090029;28;20251;-79
2021/01/14 06:47:42;;;;;;;16.30;10.55;;;;;;;2.57;88.03;98987.94;5086398;28;20240;-80
2021/01/14 06:50:24;;;;;;;16.63;10.70;;;;;;;2.77;87.50;98978.31;5078883;28;20196;-80
2021/01/14 06:52:52;;;;;;;17.15;11.07;;;;;;;2.70;87.09;98973.31;5092469;28;20220;-80
2021/01/14 06:55:23;;;;;;;16.42;10.05;;;;;;;2.64;87.63;98954.94;5091214;28;20299;-78
2021/01/14 06:58:02;;;;;;;17.40;10.45;;;;;;;2.56;87.82;98954.38;5092264;28;20219;-80
2021/01/14 07:00:30;;;;;;;17.90;11.10;;;;;;;2.56;87.42;98970.28;5085337;28;20212;-81
2021/01/14 07:03:21;;;;;;;19.52;11.00;;;;;;;2.75;86.63;98981.94;5074817;28;20204;-76
2021/01/14 07:05:53;;;;;;;13.15;8.90;;;;;;;2.70;86.00;98994.53;5065518;28;20239;-76
2021/01/14 07:08:38;;;;;;;15.98;10.80;;;;;;;2.58;86.55;98998.47;5080399;28;20204;-81
2021/01/14 07:11:12;;;;;;;16.42;10.48;;;;;;;2.45;86.55;98994.53;5089334;28;20196;-81
2021/01/14 07:13:44;;;;;;;15.85;10.50;;;;;;;2.83;85.11;98988.69;5061913;28;20234;-80
2021/01/14 07:16:12;;;;;;;17.75;9.98;;;;;;;2.79;84.67;98984.44;5057916;28;20284;-77
2021/01/14 07:18:40;;;;;;;13.60;9.85;;;;;;;2.69;84.37;98983.03;5062441;28;20220;-77
2021/01/14 07:21:35;;;;;;;15.00;10.13;;;;;;;2.56;84.51;98987.06;5088045;28;20220;-79
2021/01/14 07:24:18;;;;;;;15.38;10.27;;;;;;;2.67;84.85;98984.91;5077339;28;20306;-77
2021/01/14 07:26:46;;;;;;;15.82;9.65;;;;;;;2.82;84.27;98992.28;5075278;28;20195;-77
2021/01/14 07:29:14;;;;;;;12.35;9.27;;;;;;;2.87;83.57;99000.94;5080296;28;20177;-75
2021/01/14 07:31:51;;;;;;;15.65;10.20;;;;;;;2.80;83.86;99001.22;5074974;28;20498;-79
2021/01/14 07:34:42;;;;;;;18.17;9.10;;;;;;;2.72;83.12;99004.19;5057563;28;20212;-81
2021/01/14 07:37:10;;;;;;;20.13;13.05;;;;;;;2.62;82.93;99001.88;5055248;28;20272;-79
2021/01/14 07:39:49;;;;;;;15.13;8.88;;;;;;;2.61;82.69;99014.31;5064033;28;20223;-82
2021/01/14 07:42:32;;;;;;;15.25;8.93;;;;;;;2.62;82.94;99018.69;5063658;28;20224;-82
2021/01/14 07:45:04;;;;;;;13.98;9.50;;;;;;;2.61;83.46;99021.38;5052417;28;20658;-80
2021/01/14 07:47:33;;;;;;;15.88;8.85;;;;;;;2.64;83.32;99026.59;5050544;28;20596;-80
2021/01/14 07:50:22;;;;;;;11.80;8.65;;;;;;;2.63;83.41;99030.19;5061740;28;20196;-81
2021/01/14 07:52:50;;;;;;;18.70;8.60;;;;;;;2.63;83.45;99035.50;5076409;28;20257;-77
2021/01/14 07:55:27;;;;;;;14.27;9.52;;;;;;;2.61;83.11;99046.16;5072767;28;20230;-80
2021/01/14 07:58:04;;;;;;;17.17;10.63;;;;;;;2.98;82.34;99037.72;5067931;28;20219;-81
2021/01/14 08:00:31;;;;;;;17.80;9.93;;;;;;;3.10;81.40;99034.63;5054044;28;20211;-80
2021/01/14 08:03:08;;;;;;;14.57;9.32;;;;;;;2.99;81.92;99044.75;5069467;28;20231;-82
2021/01/14 08:05:41;;;;;;;15.55;9.10;;;;;;;2.86;82.23;99044.38;5069525;28;20189;-81
2021/01/14 08:08:27;;;;;;;12.02;7.97;;;;;;;3.18;80.01;99036.06;5074888;28;20206;-79
2021/01/14 08:11:25;;;;;;;19.45;9.80;;;;;;;3.10;79.49;99053.22;5071601;28;20240;-80
2021/01/14 08:14:17;;;;;;;11.65;8.27;;;;;;;3.25;78.98;99053.50;5090527;28;20232;-81
2021/01/14 08:16:54;;;;;;;12.18;8.38;;;;;;;3.10;78.44;99056.75;5072921;28;20311;-79
2021/01/14 08:19:30;;;;;;;12.77;8.07;;;;;;;3.27;79.12;99049.00;5071734;28;20239;-78
2021/01/14 08:22:00;;;;;;;10.70;7.95;;;;;;;3.32;78.10;99044.38;5091960;28;20219;-78
2021/01/14 08:24:52;;;;;;;17.70;10.48;;;;;;;3.20;78.82;99034.22;5073106;28;20346;-79
2021/01/14 08:27:21;;;;;;;10.18;8.10;;;;;;;3.15;79.52;99036.16;5070704;28;20212;-78
2021/01/14 08:29:56;;;;;;;14.85;8.85;;;;;;;3.15;80.44;99041.47;5090071;28;20227;-79
2021/01/14 08:32:34;;;;;;;13.98;9.43;;;;;;;3.14;79.53;99031.78;5078864;28;20276;-78
2021/01/14 08:35:27;;;;;;;14.05;9.10;;;;;;;3.12;79.06;99038.06;5074420;28;20287;-78
2021/01/14 08:38:07;;;;;;;14.05;8.52;;;;;;;3.10;78.66;99040.81;5080130;28;20287;-76
2021/01/14 08:40:38;;;;;;;10.50;7.43;;;;;;;3.15;78.38;99038.81;5071840;28;20541;-79
2021/01/14 08:43:12;;;;;;;10.65;6.80;;;;;;;3.18;77.97;99044.03;5054761;28;20261;-80
2021/01/14 08:45:44;;;;;;;8.75;7.13;;;;;;;3.10;78.27;99043.47;5088594;28;20223;-79
2021/01/14 08:48:23;;;;;;;13.05;8.20;;;;;;;3.13;78.34;99053.97;5073640;28;20320;-80
2021/01/14 08:50:55;;;;;;;11.55;6.60;;;;;;;3.25;75.89;99058.81;5071205;28;20230;-79
2021/01/14 08:53:21;;;;;;;8.75;5.93;;;;;;;3.13;75.59;99063.72;5068041;28;20239;-80
2021/01/14 08:56:02;;;;;;;9.88;6.68;;;;;;;3.16;77.04;99074.25;5056585;28;20286;-82
2021/01/14 08:58:48;;;;;;;9.18;6.65;;;;;;;3.34;75.52;99082.38;5078308;28;20227;-81
2021/01/14 09:01:25;;;;;;;11.27;7.10;;;;;;;3.37;75.87;99090.25;5075556;28;20270;-79
2021/01/14 09:03:54;;;;;;;9.45;6.75;;;;;;;3.42;74.77;99088.28;5059154;28;20228;-79
2021/01/14 09:06:29;;;;;;;8.88;6.38;;;;;;;3.27;74.25;99094.16;5055412;28;20221;-81
2021/01/14 09:08:59;;;;;;;8.98;6.30;;;;;;;3.18;75.48;99093.63;5058083;28;20725;-82
2021/01/14 09:11:28;;;;;;;8.73;6.38;;;;;;;3.00;75.01;99100.50;5052900;28;20247;-81
2021/01/14 09:14:06;;;;;;;10.50;7.05;;;;;;;3.08;75.98;99102.88;5040955;28;20217;-83
2021/01/14 09:16:33;;;;;;;20.27;13.95;;;;;;;3.21;76.19;99097.03;5076063;28;20228;-78
2021/01/14 09:18:59;;;;;;;8.68;6.43;;;;;;;3.17;75.17;99097.22;5107524;28;20232;-77
2021/01/14 09:21:34;;;;;;;9.60;6.68;;;;;;;3.14;74.68;99092.03;5091223;28;20216;-78
2021/01/14 09:24:06;;;;;;;9.68;7.22;;;;;;;3.20;75.80;99095.31;5081937;28;20219;-82
2021/01/14 09:26:32;;;;;;;7.32;6.45;;;;;;;3.03;76.52;99088.91;5086592;28;20208;-82
2021/01/14 09:28:59;;;;;;;14.13;6.93;;;;;;;2.94;76.53;99103.38;5072714;28;20192;-81
2021/01/14 09:31:28;;;;;;;11.23;7.60;;;;;;;3.11;77.21;99100.97;5089463;28;20222;-79
2021/01/14 09:33:56;;;;;;;11.13;7.53;;;;;;;3.02;77.05;99097.78;5054900;28;20287;-81
2021/01/14 09:36:22;;;;;;;7.85;5.30;;;;;;;3.01;76.85;99102.22;5070238;28;21330;-82
2021/01/14 09:39:00;;;;;;;8.57;7.32;;;;;;;2.99;76.94;99092.56;5071951;28;20238;-81
2021/01/14 09:41:29;;;;;;;7.22;6.03;;;;;;;3.22;77.21;99092.59;5071068;28;20195;-80
2021/01/14 09:44:01;;;;;;;8.68;5.15;;;;;;;3.23;76.14;99097.88;5089203;28;20220;-82
2021/01/14 09:46:38;;;;;;;8.85;6.68;;;;;;;3.26;75.68;99104.84;5071944;28;20314;-82
2021/01/14 09:49:14;;;;;;;7.60;5.53;;;;;;;3.32;75.31;99112.59;5070045;28;20225;-79
2021/01/14 09:51:43;;;;;;;8.73;6.00;;;;;;;3.57;74.20;99114.28;5088260;28;20219;-78
2021/01/14 09:54:10;;;;;;;8.73;6.65;;;;;;;3.51;73.81;99114.50;5060262;28;20219;-77
2021/01/14 09:56:41;;;;;;;9.23;6.00;;;;;;;3.50;74.88;99126.06;5089444;28;20289;-78
2021/01/14 09:59:08;;;;;;;9.20;5.95;;;;;;;3.58;74.65;99126.66;5089107;28;20322;-77
2021/01/14 10:01:39;;;;;;;11.40;7.47;;;;;;;3.55;75.33;99124.13;5065841;28;20222;-80
2021/01/14 10:04:15;;;;;;;15.27;7.85;;;;;;;3.43;75.62;99129.00;5081922;28;20219;-77
2021/01/14 10:06:51;;;;;;;12.00;7.65;;;;;;;3.36;75.88;99144.34;5064714;28;20220;-80
2021/01/14 10:09:18;;;;;;;10.60;7.20;;;;;;;3.34;75.37;99154.13;5083067;28;20229;-79
2021/01/14 10:11:45;;;;;;;9.43;6.20;;;;;;;3.36;74.61;99156.75;5088145;28;20228;-79
2021/01/14 10:14:16;;;;;;;10.10;7.32;;;;;;;3.40;74.85;99161.88;5064606;28;20188;-80
2021/01/14 10:16:47;;;;;;;10.65;7.47;;;;;;;3.82;73.61;99160.28;5099527;28;20217;-82
2021/01/14 10:19:19;;;;;;;9.30;7.25;;;;;;;3.80;73.30;99151.47;5075083;28;20258;-81
2021/01/14 10:21:47;;;;;;;9.88;6.13;;;;;;;3.95;73.25;99158.00;5064329;28;20220;-81
2021/01/14 10:24:27;;;;;;;11.95;6.05;;;;;;;3.65;73.29;99149.41;5084884;28;20308;-81
2021/01/14 10:26:54;;;;;;;10.52;7.13;;;;;;;3.77;74.30;99156.94;5096980;28;20239;-82
2021/01/14 10:29:38;;;;;;;12.75;7.45;;;;;;;3.77;74.05;99153.38;5083974;28;20192;-80
2021/01/14 10:32:13;;;;;;;10.85;7.47;;;;;;;3.77;74.61;99156.94;5068013;28;20864;-81
2021/01/14 10:34:51;;;;;;;9.32;6.82;;;;;;;3.96;73.20;99155.31;5068466;28;20219;-78
2021/01/14 10:37:31;;;;;;;18.60;7.88;;;;;;;3.90;73.45;99152.88;5098907;28;20211;-77
2021/01/14 10:40:01;;;;;;;15.00;7.47;;;;;;;3.82;74.37;99162.06;5086334;28;20227;-78
2021/01/14 10:42:36;;;;;;;11.10;6.90;;;;;;;4.11;73.81;99159.16;5067558;28;20370;-80
2021/01/14 10:45:06;;;;;;;18.20;8.60;;;;;;;3.95;73.26;99152.69;5084913;28;20718;-81
2021/01/14 10:47:33;;;;;;;11.15;6.10;;;;;;;3.81;72.67;99155.91;5083404;28;20211;-80
2021/01/14 10:49:59;;;;;;;13.05;8.80;;;;;;;3.71;73.43;99162.47;5103216;28;20191;-82
2021/01/14 10:52:27;;;;;;;14.43;7.38;;;;;;;3.66;73.39;99156.47;5080307;28;20332;-80
2021/01/14 10:54:58;;;;;;;11.32;8.68;;;;;;;3.69;73.28;99150.16;5075694;28;20257;-82
2021/01/14 10:57:50;;;;;;;12.93;10.38;;;;;;;4.02;72.84;99149.75;5080231;28;20218;-81
2021/01/14 11:00:19;;;;;;;12.15;8.07;;;;;;;3.94;73.01;99146.53;5055606;28;20224;-78
2021/01/14 11:02:45;;;;;;;11.90;8.60;;;;;;;3.87;73.42;99149.47;5048588;28;20223;-76
2021/01/14 11:05:15;;;;;;;8.90;7.15;;;;;;;3.90;73.25;99144.91;5071651;28;20252;-81
2021/01/14 11:07:42;;;;;;;12.98;8.02;;;;;;;3.91;73.92;99135.97;5075788;28;20212;-80
2021/01/14 11:10:10;;;;;;;22.63;9.77;;;;;;;3.94;72.92;99132.34;5072232;28;20701;-81
2021/01/14 11:13:05;;;;;;;23.45;11.38;;;;;;;3.94;72.62;99129.69;5094086;28;20683;-78
2021/01/14 11:15:32;;;;;;;14.50;7.65;;;;;;;3.95;73.11;99126.09;5107122;28;20223;-77
2021/01/14 11:17:59;;;;;;;9.88;7.22;;;;;;;4.09;73.70;99116.63;5085978;28;20276;-77
2021/01/14 11:20:27;;;;;;;10.52;7.85;;;;;;;4.35;73.54;99116.44;5066125;28;20197;-80
2021/01/14 11:22:53;;;;;;;12.68;8.68;;;;;;;4.20;73.74;99122.41;5063717;28;20291;-77
2021/01/14 11:25:19;;;;;;;11.38;7.55;;;;;;;4.12;73.05;99119.16;5067864;28;20271;-76
2021/01/14 11:27:45;;;;;;;12.82;8.32;;;;;;;4.16;73.40;99122.59;5067915;28;20220;-78
2021/01/14 11:30:12;;;;;;;14.50;9.57;;;;;;;4.10;74.02;99118.38;5069531;28;20272;-77
2021/01/14 11:32:46;;;;;;;16.63;9.60;;;;;;;4.02;74.97;99120.47;5089715;28;20237;-79
2021/01/14 11:35:13;;;;;;;12.43;9.18;;;;;;;3.97;76.05;99117.13;5092646;28;20180;-80
2021/01/14 11:37:41;;;;;;;16.05;10.27;;;;;;;4.01;76.40;99110.78;5087285;28;20255;-80
2021/01/14 11:40:09;;;;;;;14.45;9.70;;;;;;;4.02;76.89;99104.50;5075303;28;20461;-82
2021/01/14 11:42:35;;;;;;;38.85;25.00;;;;;;;4.16;76.00;99111.97;5060574;28;20311;-80
2021/01/14 11:45:02;;;;;;;13.85;9.05;;;;;;;4.40;73.48;99093.19;5061327;28;20234;-80
2021/01/14 11:47:28;;;;;;;11.07;8.68;;;;;;;4.24;73.95;99105.38;5074038;28;20196;-82
2021/01/14 11:49:54;;;;;;;12.30;8.50;;;;;;;4.14;74.56;99101.38;5058350;28;20215;-81
2021/01/14 11:52:21;;;;;;;11.30;8.07;;;;;;;4.32;74.55;99111.28;5081601;27;20230;-79